Shelburn, Indiana
Current Conditions -  °F | °C
As of 3:15 PM on Sunday 25 Jan 2015 (Local Time) from KRSV Reporting Station
Moderate Rain Moderate Rain  
Wind Chill:   Ceiling: 500
Heat Index:   Visibility: 2mi
Dew Point:   Wind: 8mph
Humidity: 97%   Direction: 110°ESE
Pressure: 29.61"   Gusts: NA
Location:  39.18°N, 87.39°W
Report Text: KRSV 252015Z AUTO 11007KT 2SM RA OVC005 04/04 A2961 RMK AO2 P0001 T00400035
Loading
Personal Weather Stations






























Interactive Weather Map New forecast layout! Learn more

10-Day Weather Forecast

Advertisements
Track Severe Weather on mobile